모두
New Market Airport (New Market, VA) 8W2 기상
|
New Market, VA (8W2)
맑은 하늘
잔잔한 바람 |
|
7 °C |
There is no TAF data available at 8W2 or any nearby airports.
최근 8W2 METAR 이력
| Date | Time (EDT) | Flight Rules | Wind Dir. | Speed | Type | Height AGL (ft) | Visibility | Temp (°C) | Temp (°F) | Dew Point (°C) | Dew Point (°F) | Rel. Humid. | Pressure | Density Altitude | Remarks |
|---|---|---|---|---|---|---|---|---|---|---|---|---|---|---|---|
| 03-5월 | 00:15 | VFR | Calm | 10 miles | 7° | 44° | -2° | 28° | 55% | 29.97 in Hg | -48 ft | ||||
| 02-5월 | 23:55 | VFR | 340° | 3 kt | 10 miles | 8° | 46° | -2° | 28° | 51% | 29.97 in Hg | 72 ft | |||
| 02-5월 | 23:35 | VFR | 360° | 4 kt | 10 miles | 8° | 46° | -2° | 28° | 50% | 29.97 in Hg | 72 ft | |||
| 02-5월 | 23:15 | VFR | 10° | 3 kt | 10 miles | 8° | 46° | -2° | 28° | 48% | 29.97 in Hg | 72 ft | |||
| 02-5월 | 22:55 | VFR | 350° | 5 kt | 10 miles | 9° | 48° | -2° | 28° | 46% | 29.97 in Hg | 192 ft | |||
| 02-5월 | 22:35 | VFR | Calm | 10 miles | 10° | 50° | -2° | 28° | 43% | 29.97 in Hg | 312 ft | ||||
| 02-5월 | 22:15 | VFR | 20° | 6 kt | 10 miles | 10° | 50° | -3° | 26° | 42% | 29.96 in Hg | 322 ft | |||
| 02-5월 | 21:55 | VFR | Calm | 10 miles | 10° | 50° | -3° | 26° | 41% | 29.95 in Hg | 332 ft | ||||
| 02-5월 | 21:35 | VFR | Calm | 10 miles | 10° | 50° | -2° | 28° | 44% | 29.95 in Hg | 332 ft | ||||
| 02-5월 | 21:15 | VFR | Calm | 10 miles | 11° | 51° | -4° | 24° | 36% | 29.94 in Hg | 462 ft | ||||
| 02-5월 | 20:55 | VFR | Calm | 10 miles | 11° | 51° | -4° | 24° | 34% | 29.94 in Hg | 462 ft | ||||
| 02-5월 | 20:35 | VFR | 340° | 4 kt | 10 miles | 11° | 51° | -4° | 24° | 34% | 29.92 in Hg | 482 ft | |||
| 02-5월 | 20:15 | VFR | Calm | 10 miles | 12° | 53° | -5° | 23° | 30% | 29.91 in Hg | 612 ft | ||||
| 02-5월 | 19:55 | VFR | 320° | 5 kt | 10 miles | 12° | 53° | -5° | 23° | 29% | 29.90 in Hg | 622 ft | |||
| 02-5월 | 19:35 | VFR | 340° | 4 kt | 10 miles | 12° | 53° | -6° | 21° | 28% | 29.90 in Hg | 622 ft | |||
| 02-5월 | 19:15 | VFR | Calm | 10 miles | 13° | 55° | -6° | 21° | 28% | 29.89 in Hg | 752 ft | ||||
| 02-5월 | 18:55 | VFR | 330° | 3 kt | 10 miles | 13° | 55° | -5° | 23° | 29% | 29.89 in Hg | 752 ft | |||
| 02-5월 | 18:35 | VFR | 350° | 5 kt | 10 miles | 13° | 55° | -4° | 24° | 30% | 29.89 in Hg | 752 ft | |||
| 02-5월 | 18:15 | VFR | Calm | 10 miles | 13° | 55° | -4° | 24° | 30% | 29.89 in Hg | 752 ft | ||||
| 02-5월 | 17:55 | VFR | 330° | 5 kt | 10 miles | 14° | 57° | -4° | 24° | 28% | 29.88 in Hg | 882 ft | |||
| 02-5월 | 17:35 | VFR | 350° | 5 kt | 10 miles | 14° | 57° | -4° | 24° | 27% | 29.88 in Hg | 882 ft | Wind gusting to 14 KT | ||
| 02-5월 | 17:15 | VFR | 260° | 8 kt | 10 miles | 14° | 57° | -4° | 24° | 27% | 29.87 in Hg | 892 ft | |||
| 02-5월 | 16:55 | VFR | 350° | 5 kt | 10 miles | 14° | 57° | -3° | 26° | 32% | 29.88 in Hg | 882 ft | Wind gusting to 14 KT | ||
| 02-5월 | 16:35 | VFR | 10° | 8 kt | 10 miles | 14° | 57° | -3° | 26° | 32% | 29.88 in Hg | 882 ft |
로그인
| 귀하의 브라우저는 지원되지 않습니다.. 브라우저를 업그레이드하세요 |
